Time;durP1;ratioP1;P1;durP2;ratioP2;P2;SDS_P1;SDS_P2;PMS_P1;PMS_P2;Temp;Humidity;BMP_temperature;BMP_pressure;BME280_temperature;BME280_humidity;BME280_pressure;Samples;Min_cycle;Max_cycle;Signal;HPM_P1;HPM_P2
2022/01/24 00:00:13;;;;;;;16.60;11.05;;;;;;;;;;5159824;27;20051;-63
2022/01/24 00:02:42;;;;;;;15.63;10.60;;;;;;;;;;5139792;27;20532;-63
2022/01/24 00:05:09;;;;;;;15.75;10.50;;;;;;;;;;5149505;27;20063;-63
2022/01/24 00:07:35;;;;;;;16.40;10.15;;;;;;;;;;5147204;27;20051;-63
2022/01/24 00:10:06;;;;;;;16.50;11.15;;;;;;;;;;5140020;27;20051;-63
2022/01/24 00:12:45;;;;;;;15.85;10.82;;;;;;;;;;5149056;27;20052;-63
2022/01/24 00:15:21;;;;;;;20.55;11.48;;;;;;;;;;5141969;27;20139;-62
2022/01/24 00:17:51;;;;;;;14.90;10.52;;;;;;;;;;5159809;27;20055;-63
2022/01/24 00:28:28;;;;;;;17.60;11.63;;;;;;;;;;5144364;27;20051;-63
2022/01/24 00:30:54;;;;;;;15.15;10.02;;;;;;;;;;5140108;27;20465;-63
2022/01/24 00:33:21;;;;;;;14.52;10.68;;;;;;;;;;5136417;27;20063;-62
2022/01/24 00:35:50;;;;;;;16.90;10.73;;;;;;;;;;5136460;27;20091;-64
2022/01/24 00:38:16;;;;;;;15.73;10.20;;;;;;;;;;5150611;27;20058;-63
2022/01/24 00:40:46;;;;;;;15.27;10.32;;;;;;;;;;5146192;27;20143;-63
2022/01/24 00:43:31;;;;;;;16.08;10.27;;;;;;;;;;5140871;27;20163;-63
2022/01/24 00:46:17;;;;;;;19.10;10.48;;;;;;;;;;5146861;27;20043;-62
2022/01/24 00:49:17;;;;;;;17.73;11.45;;;;;;;;;;5156717;27;20051;-63
2022/01/24 00:54:47;;;;;;;17.67;10.85;;;;;;;;;;5124362;27;20057;-63
2022/01/24 00:57:14;;;;;;;17.80;11.02;;;;;;;;;;5151358;27;20058;-63
2022/01/24 00:59:40;;;;;;;17.60;11.35;;;;;;;;;;5147073;27;20051;-63
2022/01/24 01:02:06;;;;;;;18.77;11.75;;;;;;;;;;5141878;27;20054;-63
2022/01/24 01:04:52;;;;;;;17.70;11.45;;;;;;;;;;5135637;27;20067;-62
2022/01/24 01:07:37;;;;;;;21.65;12.27;;;;;;;;;;5121511;27;20102;-63
2022/01/24 01:18:19;;;;;;;19.58;11.85;;;;;;;;;;5135569;27;20054;-62
2022/01/24 01:23:33;;;;;;;18.95;11.93;;;;;;;;;;5122553;27;20073;-63
2022/01/24 01:26:03;;;;;;;20.73;13.38;;;;;;;;;;5139403;27;20059;-63
2022/01/24 01:28:31;;;;;;;18.92;12.65;;;;;;;;;;5137735;27;20352;-63
2022/01/24 01:31:03;;;;;;;20.83;12.73;;;;;;;;;;5145443;27;20055;-63
2022/01/24 01:33:42;;;;;;;19.33;13.02;;;;;;;;;;5142707;27;20510;-63
2022/01/24 01:36:28;;;;;;;18.67;11.98;;;;;;;;;;5143040;27;20053;-63
2022/01/24 01:39:29;;;;;;;16.43;11.47;;;;;;;;;;5139050;27;20475;-63
2022/01/24 01:55:38;;;;;;;20.63;12.52;;;;;;;;;;5132720;27;20540;-63
2022/01/24 01:58:05;;;;;;;21.42;12.73;;;;;;;;;;5137552;27;20074;-63
2022/01/24 02:00:32;;;;;;;18.83;11.85;;;;;;;;;;5155831;27;20047;-63
2022/01/24 02:02:58;;;;;;;21.45;14.00;;;;;;;;;;5145524;27;20055;-63
2022/01/24 02:05:25;;;;;;;21.58;13.77;;;;;;;;;;5134696;27;20063;-63
2022/01/24 02:07:52;;;;;;;23.48;13.25;;;;;;;;;;5135064;27;20080;-63
2022/01/24 02:10:19;;;;;;;22.25;14.32;;;;;;;;;;5134604;27;20051;-63
2022/01/24 02:12:47;;;;;;;20.58;13.77;;;;;;;;;;5134797;27;20043;-62
2022/01/24 02:15:18;;;;;;;22.02;14.32;;;;;;;;;;5137334;27;20053;-63
2022/01/24 02:20:54;;;;;;;22.83;14.73;;;;;;;;;;5135757;27;20127;-63
2022/01/24 02:25:51;;;;;;;20.20;13.63;;;;;;;;;;5151509;27;20079;-63
2022/01/24 02:28:20;;;;;;;22.88;14.07;;;;;;;;;;5155650;27;20502;-63
2022/01/24 02:30:58;;;;;;;19.48;13.43;;;;;;;;;;5139934;27;20051;-63
2022/01/24 02:33:25;;;;;;;20.85;12.75;;;;;;;;;;5138770;27;20507;-63
2022/01/24 02:35:52;;;;;;;23.25;14.10;;;;;;;;;;5133917;27;20138;-63
2022/01/24 02:38:39;;;;;;;23.25;15.00;;;;;;;;;;5136927;27;20501;-63
2022/01/24 02:49:36;;;;;;;23.40;15.02;;;;;;;;;;5134753;27;20055;-63
2022/01/24 02:52:05;;;;;;;26.23;14.50;;;;;;;;;;5134016;27;20070;-63
2022/01/24 02:54:33;;;;;;;22.70;15.68;;;;;;;;;;5144830;27;20052;-63
2022/01/24 02:57:00;;;;;;;24.63;15.10;;;;;;;;;;5146937;27;20138;-63
2022/01/24 02:59:26;;;;;;;22.83;14.50;;;;;;;;;;5149537;27;20520;-62
2022/01/24 03:01:53;;;;;;;24.75;15.43;;;;;;;;;;5134885;27;20961;-63
2022/01/24 03:04:19;;;;;;;26.38;16.10;;;;;;;;;;5133568;27;20083;-63
2022/01/24 03:06:46;;;;;;;24.88;16.00;;;;;;;;;;5135765;27;20083;-62
2022/01/24 03:09:13;;;;;;;22.80;15.52;;;;;;;;;;5134949;27;20055;-62
2022/01/24 03:14:16;;;;;;;24.65;15.30;;;;;;;;;;5143753;27;20052;-62
2022/01/24 03:16:42;;;;;;;25.30;16.40;;;;;;;;;;5145240;27;20054;-63
2022/01/24 03:19:08;;;;;;;26.45;16.92;;;;;;;;;;5154543;27;20055;-63
2022/01/24 03:21:35;;;;;;;25.10;16.33;;;;;;;;;;5130452;27;20051;-63
2022/01/24 03:24:01;;;;;;;27.08;16.83;;;;;;;;;;5134842;27;20058;-63
2022/01/24 03:26:27;;;;;;;27.95;17.75;;;;;;;;;;5137466;27;20460;-63
2022/01/24 03:28:54;;;;;;;29.58;18.83;;;;;;;;;;5134075;27;20512;-63
2022/01/24 03:31:20;;;;;;;28.45;18.70;;;;;;;;;;5144881;27;20051;-63
2022/01/24 03:33:46;;;;;;;33.03;20.23;;;;;;;;;;5154162;27;20054;-63
2022/01/24 03:36:13;;;;;;;31.95;19.27;;;;;;;;;;5145116;27;20055;-63
2022/01/24 03:38:39;;;;;;;34.83;19.33;;;;;;;;;;5138194;27;20058;-63
2022/01/24 03:41:05;;;;;;;31.17;19.98;;;;;;;;;;5133785;27;20884;-63
2022/01/24 03:43:31;;;;;;;29.70;19.10;;;;;;;;;;5134888;27;20058;-63
2022/01/24 03:46:47;;;;;;;33.75;20.23;;;;;;;;;;5133558;27;20544;-63
2022/01/24 03:48:48;;;;;;;31.90;19.90;;;;;;;;;;5121165;27;20100;-62
2022/01/24 03:51:15;;;;;;;32.13;20.67;;;;;;;;;;5133026;27;20058;-63
2022/01/24 03:53:42;;;;;;;35.47;22.10;;;;;;;;;;5115375;27;20044;-63
2022/01/24 03:56:09;;;;;;;31.98;20.85;;;;;;;;;;5140024;27;20051;-63
2022/01/24 03:58:35;;;;;;;36.58;21.90;;;;;;;;;;5136226;27;20524;-62
2022/01/24 04:01:04;;;;;;;36.00;23.50;;;;;;;;;;5141570;27;20058;-63
2022/01/24 04:03:31;;;;;;;38.42;23.48;;;;;;;;;;5148881;27;20060;-62
2022/01/24 04:05:57;;;;;;;40.20;23.63;;;;;;;;;;5148526;27;20149;-62
2022/01/24 04:08:24;;;;;;;42.08;24.02;;;;;;;;;;5139544;27;20054;-63
2022/01/24 04:10:54;;;;;;;42.50;24.42;;;;;;;;;;5136037;27;20056;-63
2022/01/24 04:13:34;;;;;;;41.17;25.35;;;;;;;;;;5136681;27;20054;-63
2022/01/24 04:18:40;;;;;;;38.92;25.88;;;;;;;;;;5147387;27;20135;-63
2022/01/24 04:24:00;;;;;;;38.42;25.75;;;;;;;;;;5135867;27;20051;-62
2022/01/24 04:26:27;;;;;;;41.53;25.52;;;;;;;;;;5141992;27;20052;-64
2022/01/24 04:28:54;;;;;;;38.15;25.52;;;;;;;;;;5147763;27;20520;-63
2022/01/24 04:31:22;;;;;;;42.13;25.48;;;;;;;;;;5144253;27;20058;-62
2022/01/24 04:33:49;;;;;;;38.47;25.60;;;;;;;;;;5135837;27;20534;-63
2022/01/24 04:36:16;;;;;;;38.22;25.92;;;;;;;;;;5137675;27;20057;-63
2022/01/24 04:38:43;;;;;;;36.45;24.02;;;;;;;;;;5137290;27;20051;-63
2022/01/24 04:41:18;;;;;;;34.00;23.17;;;;;;;;;;5138781;27;20055;-63
2022/01/24 04:43:54;;;;;;;34.15;23.13;;;;;;;;;;5156185;27;20055;-63
2022/01/24 04:56:42;;;;;;;41.75;25.52;;;;;;;;;;5136981;27;20051;-63
2022/01/24 04:59:10;;;;;;;38.88;25.27;;;;;;;;;;5151231;27;20051;-63
2022/01/24 05:01:36;;;;;;;38.17;26.08;;;;;;;;;;5152785;27;20887;-63
2022/01/24 05:04:02;;;;;;;43.95;26.60;;;;;;;;;;5135703;27;20142;-63
2022/01/24 05:06:29;;;;;;;38.70;25.88;;;;;;;;;;5148661;27;20059;-62
2022/01/24 05:08:55;;;;;;;40.45;25.60;;;;;;;;;;5136622;27;20417;-62
2022/01/24 05:11:33;;;;;;;40.00;26.00;;;;;;;;;;5139486;27;20061;-63
2022/01/24 05:24:43;;;;;;;41.55;27.35;;;;;;;;;;5139521;27;20051;-63
2022/01/24 05:27:10;;;;;;;44.63;28.42;;;;;;;;;;5146319;27;20051;-62
2022/01/24 05:29:36;;;;;;;46.92;27.95;;;;;;;;;;5147880;27;20058;-63
2022/01/24 05:32:03;;;;;;;47.15;27.77;;;;;;;;;;5135473;27;20058;-63
2022/01/24 05:34:30;;;;;;;41.50;26.38;;;;;;;;;;5137192;27;20056;-63
2022/01/24 05:36:56;;;;;;;44.80;27.55;;;;;;;;;;5135934;27;20130;-63
2022/01/24 05:39:22;;;;;;;42.67;27.35;;;;;;;;;;5135494;27;20068;-63
2022/01/24 05:41:49;;;;;;;43.70;29.10;;;;;;;;;;5135568;27;20052;-63
2022/01/24 05:44:15;;;;;;;44.63;29.15;;;;;;;;;;5135596;27;20064;-63
2022/01/24 05:46:41;;;;;;;40.75;27.48;;;;;;;;;;5134858;27;20180;-63
2022/01/24 05:49:08;;;;;;;45.67;27.63;;;;;;;;;;5143719;27;20048;-63
2022/01/24 05:51:34;;;;;;;43.45;28.85;;;;;;;;;;5139747;27;20077;-63
2022/01/24 05:54:00;;;;;;;45.72;28.38;;;;;;;;;;5135810;27;20571;-63
2022/01/24 05:56:27;;;;;;;48.05;28.75;;;;;;;;;;5134803;27;20092;-63
2022/01/24 05:58:53;;;;;;;48.25;29.20;;;;;;;;;;5134629;27;20056;-63
2022/01/24 06:01:20;;;;;;;47.40;29.98;;;;;;;;;;5134633;27;20087;-63
2022/01/24 06:03:47;;;;;;;49.90;28.75;;;;;;;;;;5133401;27;20147;-63
2022/01/24 06:06:13;;;;;;;44.47;28.92;;;;;;;;;;5134755;27;20090;-62
2022/01/24 06:08:39;;;;;;;50.40;30.40;;;;;;;;;;5133979;27;20176;-63
2022/01/24 06:11:06;;;;;;;48.80;30.08;;;;;;;;;;5134496;27;20419;-63
2022/01/24 06:13:32;;;;;;;49.88;30.88;;;;;;;;;;5133750;27;20047;-63
2022/01/24 06:15:58;;;;;;;45.25;28.42;;;;;;;;;;5134593;27;20069;-64
2022/01/24 06:18:25;;;;;;;45.28;28.17;;;;;;;;;;5134879;27;20051;-63
2022/01/24 06:20:53;;;;;;;46.45;28.70;;;;;;;;;;5115510;27;20483;-63
2022/01/24 06:23:19;;;;;;;50.65;30.23;;;;;;;;;;5134399;27;20138;-63
2022/01/24 06:25:46;;;;;;;44.78;29.98;;;;;;;;;;5133698;27;20517;-65
2022/01/24 06:28:12;;;;;;;44.70;27.33;;;;;;;;;;5134903;27;20064;-62
2022/01/24 06:30:39;;;;;;;47.47;29.23;;;;;;;;;;5133728;27;20142;-63
2022/01/24 06:33:05;;;;;;;42.65;27.67;;;;;;;;;;5132444;27;20062;-63
2022/01/24 06:35:31;;;;;;;45.50;28.63;;;;;;;;;;5133782;27;20047;-63
2022/01/24 06:37:57;;;;;;;47.58;29.27;;;;;;;;;;5134207;27;20487;-63
2022/01/24 06:40:24;;;;;;;48.88;29.50;;;;;;;;;;5134684;27;20060;-63
2022/01/24 06:42:50;;;;;;;47.47;29.48;;;;;;;;;;5133795;27;20054;-62
2022/01/24 06:45:16;;;;;;;46.10;29.52;;;;;;;;;;5136732;27;20059;-63
2022/01/24 06:47:44;;;;;;;46.33;29.02;;;;;;;;;;5123899;27;20052;-63
2022/01/24 06:50:11;;;;;;;48.53;29.27;;;;;;;;;;5134120;27;20639;-62
2022/01/24 06:52:37;;;;;;;49.40;29.25;;;;;;;;;;5146805;27;20051;-63
2022/01/24 06:55:04;;;;;;;42.55;27.98;;;;;;;;;;5154660;27;20047;-62
2022/01/24 06:57:30;;;;;;;49.22;31.10;;;;;;;;;;5147476;27;20581;-62
2022/01/24 06:59:56;;;;;;;45.28;29.30;;;;;;;;;;5133727;27;20066;-62
2022/01/24 07:02:23;;;;;;;50.28;31.50;;;;;;;;;;5134561;27;20044;-62
2022/01/24 07:04:49;;;;;;;47.25;29.67;;;;;;;;;;5141312;27;20120;-62
2022/01/24 07:07:18;;;;;;;47.40;28.67;;;;;;;;;;5134502;27;20077;-62
2022/01/24 07:09:45;;;;;;;49.63;29.70;;;;;;;;;;5154755;27;20047;-63
2022/01/24 07:12:11;;;;;;;47.42;29.08;;;;;;;;;;5146897;27;20062;-62
2022/01/24 07:14:40;;;;;;;48.50;30.35;;;;;;;;;;5138181;27;20051;-63
2022/01/24 07:19:50;;;;;;;48.30;30.67;;;;;;;;;;5134141;27;20056;-63
2022/01/24 07:22:17;;;;;;;49.53;31.35;;;;;;;;;;5133756;27;20043;-63
2022/01/24 07:24:43;;;;;;;48.78;29.63;;;;;;;;;;5134088;27;20557;-62
2022/01/24 07:27:09;;;;;;;41.10;26.13;;;;;;;;;;5134596;27;20052;-64
2022/01/24 07:29:35;;;;;;;44.72;27.55;;;;;;;;;;5145505;27;20052;-62
2022/01/24 07:32:02;;;;;;;44.67;27.88;;;;;;;;;;5134402;27;20051;-63
2022/01/24 07:34:28;;;;;;;43.50;26.75;;;;;;;;;;5142874;27;20061;-63
2022/01/24 07:36:55;;;;;;;46.00;26.58;;;;;;;;;;5146744;27;20055;-63
2022/01/24 07:39:22;;;;;;;40.90;26.48;;;;;;;;;;5157612;27;20055;-63
2022/01/24 07:41:48;;;;;;;44.53;27.80;;;;;;;;;;5158124;27;20069;-64
2022/01/24 07:44:15;;;;;;;40.53;25.75;;;;;;;;;;5147932;27;20055;-63
2022/01/24 07:46:41;;;;;;;38.38;23.23;;;;;;;;;;5137133;27;20047;-64
2022/01/24 07:49:10;;;;;;;38.15;24.13;;;;;;;;;;5136727;27;20506;-64
2022/01/24 07:51:36;;;;;;;41.75;24.90;;;;;;;;;;5136838;27;20052;-64
2022/01/24 07:54:03;;;;;;;39.85;25.30;;;;;;;;;;5137034;27;20130;-64
2022/01/24 07:56:29;;;;;;;38.05;23.75;;;;;;;;;;5136280;27;20433;-64
2022/01/24 07:58:55;;;;;;;40.47;25.73;;;;;;;;;;5136240;27;20051;-63
2022/01/24 08:01:22;;;;;;;40.42;25.48;;;;;;;;;;5141813;27;20081;-62
2022/01/24 08:03:48;;;;;;;42.53;27.33;;;;;;;;;;5136639;27;20056;-62
2022/01/24 08:06:15;;;;;;;39.15;24.48;;;;;;;;;;5136907;27;20529;-62
2022/01/24 08:08:41;;;;;;;41.63;26.42;;;;;;;;;;5137345;27;20172;-63
2022/01/24 08:11:08;;;;;;;40.78;25.90;;;;;;;;;;5154020;27;20058;-63
2022/01/24 08:13:36;;;;;;;40.83;26.77;;;;;;;;;;5135958;27;20047;-63
2022/01/24 08:16:03;;;;;;;34.33;23.70;;;;;;;;;;5136338;27;20058;-63
2022/01/24 08:18:29;;;;;;;38.67;25.20;;;;;;;;;;5117988;27;20058;-62
2022/01/24 08:20:55;;;;;;;38.38;25.27;;;;;;;;;;5136606;27;20048;-62
2022/01/24 08:23:22;;;;;;;35.33;23.48;;;;;;;;;;5136461;27;20062;-62
2022/01/24 08:25:53;;;;;;;35.85;23.55;;;;;;;;;;5136474;27;20075;-63
2022/01/24 08:28:19;;;;;;;32.58;22.52;;;;;;;;;;5136885;27;20048;-62
2022/01/24 08:30:45;;;;;;;32.40;21.40;;;;;;;;;;5136557;27;20514;-63
2022/01/24 08:33:12;;;;;;;33.08;22.48;;;;;;;;;;5117615;27;20052;-63
2022/01/24 08:35:40;;;;;;;29.65;21.48;;;;;;;;;;5145749;27;20090;-63
2022/01/24 08:38:06;;;;;;;34.90;22.65;;;;;;;;;;5153526;27;20055;-62
2022/01/24 08:40:34;;;;;;;31.00;21.33;;;;;;;;;;5138088;27;20760;-62
2022/01/24 08:43:04;;;;;;;31.70;21.60;;;;;;;;;;5136023;27;20511;-62
2022/01/24 08:45:48;;;;;;;31.38;20.67;;;;;;;;;;5136482;27;20518;-62
2022/01/24 08:48:16;;;;;;;31.25;20.35;;;;;;;;;;5135619;27;20097;-62
2022/01/24 08:50:43;;;;;;;30.42;20.65;;;;;;;;;;5135736;27;20063;-63
2022/01/24 08:53:10;;;;;;;30.42;21.40;;;;;;;;;;5135933;27;20521;-62
2022/01/24 08:55:37;;;;;;;29.23;20.90;;;;;;;;;;5136145;27;20051;-63
2022/01/24 08:58:04;;;;;;;33.20;22.30;;;;;;;;;;5135874;27;20078;-63
2022/01/24 09:00:31;;;;;;;31.02;20.35;;;;;;;;;;5117945;27;20051;-64
2022/01/24 09:02:57;;;;;;;29.52;20.13;;;;;;;;;;5135798;27;20062;-64
2022/01/24 09:05:24;;;;;;;29.90;20.55;;;;;;;;;;5117299;27;20052;-64
2022/01/24 09:07:51;;;;;;;27.13;18.80;;;;;;;;;;5135928;27;20051;-64
2022/01/24 09:10:18;;;;;;;23.38;17.17;;;;;;;;;;5136058;27;20056;-64
2022/01/24 09:12:45;;;;;;;24.55;18.10;;;;;;;;;;5141294;27;20062;-64
2022/01/24 09:15:11;;;;;;;27.05;19.05;;;;;;;;;;5138110;27;20077;-63
2022/01/24 09:17:38;;;;;;;24.02;17.95;;;;;;;;;;5146350;27;20085;-63
2022/01/24 09:20:05;;;;;;;27.02;19.05;;;;;;;;;;5135476;27;20051;-64
2022/01/24 09:22:42;;;;;;;24.10;17.58;;;;;;;;;;5135571;27;20044;-65
2022/01/24 09:25:11;;;;;;;22.58;16.83;;;;;;;;;;5139768;27;20490;-63
2022/01/24 09:27:38;;;;;;;21.77;16.42;;;;;;;;;;5135028;27;20419;-64
2022/01/24 09:30:06;;;;;;;26.60;18.80;;;;;;;;;;5136568;27;20055;-62
2022/01/24 09:32:32;;;;;;;23.38;18.35;;;;;;;;;;5135539;27;20131;-62
2022/01/24 09:34:58;;;;;;;23.52;17.60;;;;;;;;;;5135682;27;20039;-63
2022/01/24 09:37:25;;;;;;;26.35;19.08;;;;;;;;;;5143557;27;20498;-62
2022/01/24 09:39:51;;;;;;;24.63;18.45;;;;;;;;;;5156100;27;20134;-63
2022/01/24 09:42:23;;;;;;;25.98;18.63;;;;;;;;;;5132857;27;20514;-62
2022/01/24 09:44:50;;;;;;;24.02;17.52;;;;;;;;;;5143478;27;20104;-63
2022/01/24 09:47:17;;;;;;;27.40;19.17;;;;;;;;;;5152334;27;20488;-63
2022/01/24 09:49:45;;;;;;;26.98;18.38;;;;;;;;;;5155645;27;20055;-64
2022/01/24 09:52:12;;;;;;;27.25;19.55;;;;;;;;;;5145736;27;20062;-63
2022/01/24 09:54:38;;;;;;;25.30;18.33;;;;;;;;;;5134209;27;20521;-63
2022/01/24 09:57:04;;;;;;;26.15;19.73;;;;;;;;;;5134103;27;20047;-62
2022/01/24 09:59:32;;;;;;;26.83;19.35;;;;;;;;;;5134797;27;20054;-62
2022/01/24 10:01:58;;;;;;;26.13;18.33;;;;;;;;;;5125095;27;20055;-63
2022/01/24 10:04:26;;;;;;;23.00;17.45;;;;;;;;;;5155297;27;20051;-63
2022/01/24 10:07:02;;;;;;;26.80;18.42;;;;;;;;;;5155038;27;20205;-63
2022/01/24 10:09:28;;;;;;;;;;;;;;;;;;5138337;27;20056;-63
2022/01/24 10:11:54;;;;;;;;;;;;;;;;;;5134363;27;45505;-63
2022/01/24 10:17:19;;;;;;;29.30;19.52;;;;;;;;;;5135179;27;20051;-62
2022/01/24 10:19:45;;;;;;;25.60;16.92;;;;;;;;;;5134678;27;20086;-63
2022/01/24 10:22:12;;;;;;;24.20;17.58;;;;;;;;;;5134983;27;20055;-64
2022/01/24 10:24:40;;;;;;;23.10;18.50;;;;;;;;;;5133565;27;20047;-63
2022/01/24 10:27:12;;;;;;;23.23;18.17;;;;;;;;;;5138826;27;20051;-63
2022/01/24 10:29:44;;;;;;;24.95;18.13;;;;;;;;;;5134177;27;20078;-63
2022/01/24 10:32:27;;;;;;;30.67;19.27;;;;;;;;;;5134614;27;20052;-63
2022/01/24 10:34:54;;;;;;;27.95;19.10;;;;;;;;;;5137237;27;20052;-62
2022/01/24 10:37:20;;;;;;;24.48;19.48;;;;;;;;;;5133452;27;20426;-63
2022/01/24 10:39:56;;;;;;;23.85;18.10;;;;;;;;;;5146214;27;20055;-64
2022/01/24 10:44:57;;;;;;;23.27;17.90;;;;;;;;;;5150703;27;20494;-63
2022/01/24 10:47:31;;;;;;;24.60;17.83;;;;;;;;;;5145322;27;20105;-63
2022/01/24 10:49:59;;;;;;;22.02;17.45;;;;;;;;;;5134290;27;20062;-63
2022/01/24 10:52:27;;;;;;;25.67;19.67;;;;;;;;;;5136593;27;20051;-62
2022/01/24 10:55:10;;;;;;;23.20;17.60;;;;;;;;;;5150779;27;20067;-63
2022/01/24 10:57:36;;;;;;;28.35;17.55;;;;;;;;;;5113578;28;20055;-63
2022/01/24 11:00:09;;;;;;;21.27;17.02;;;;;;;;;;5120137;27;20051;-63
2022/01/24 11:02:40;;;;;;;22.60;16.75;;;;;;;;;;5134514;27;20055;-63
2022/01/24 11:05:14;;;;;;;23.05;16.42;;;;;;;;;;5133645;27;20059;-63
2022/01/24 11:07:49;;;;;;;24.98;16.38;;;;;;;;;;5133495;27;20566;-63
2022/01/24 11:10:15;;;;;;;21.83;16.30;;;;;;;;;;5133821;27;20043;-63
2022/01/24 11:12:42;;;;;;;20.65;16.02;;;;;;;;;;5133975;27;20059;-63
2022/01/24 11:15:10;;;;;;;21.10;16.27;;;;;;;;;;5134087;27;20047;-62
2022/01/24 11:17:36;;;;;;;22.15;16.33;;;;;;;;;;5127928;27;20051;-63
2022/01/24 11:20:03;;;;;;;21.50;16.80;;;;;;;;;;5148896;27;20131;-63
2022/01/24 11:22:33;;;;;;;20.52;14.98;;;;;;;;;;5134962;27;20079;-64
2022/01/24 11:25:03;;;;;;;19.48;14.82;;;;;;;;;;5150157;27;20055;-63
2022/01/24 11:27:36;;;;;;;22.10;14.07;;;;;;;;;;5144264;27;20134;-63
2022/01/24 11:30:08;;;;;;;19.55;14.80;;;;;;;;;;5145490;27;20592;-63
2022/01/24 11:32:50;;;;;;;19.20;13.80;;;;;;;;;;5154705;27;20134;-63
2022/01/24 11:35:30;;;;;;;19.10;13.18;;;;;;;;;;5144744;27;20139;-63
2022/01/24 11:37:57;;;;;;;22.27;13.75;;;;;;;;;;5135578;27;20054;-63
2022/01/24 11:40:23;;;;;;;19.60;14.15;;;;;;;;;;5134439;27;20052;-63
2022/01/24 11:42:50;;;;;;;21.48;15.70;;;;;;;;;;5142409;27;20052;-63
2022/01/24 11:45:36;;;;;;;17.67;13.73;;;;;;;;;;5133887;27;20067;-63
2022/01/24 11:48:13;;;;;;;16.90;12.23;;;;;;;;;;5128098;27;20072;-64
2022/01/24 11:50:39;;;;;;;18.50;12.20;;;;;;;;;;5126930;27;20048;-63
2022/01/24 11:53:20;;;;;;;16.33;12.05;;;;;;;;;;5133495;27;20502;-63
2022/01/24 11:55:46;;;;;;;14.57;11.40;;;;;;;;;;5133692;27;20509;-63
2022/01/24 11:58:20;;;;;;;22.75;12.88;;;;;;;;;;5133296;27;20487;-63
2022/01/24 12:00:47;;;;;;;18.02;12.82;;;;;;;;;;5133155;27;20052;-63
2022/01/24 12:03:16;;;;;;;17.23;12.27;;;;;;;;;;5131897;27;20055;-63
2022/01/24 12:05:44;;;;;;;17.27;11.55;;;;;;;;;;5140024;27;20051;-64
2022/01/24 12:08:32;;;;;;;17.02;12.30;;;;;;;;;;5133926;27;20055;-64
2022/01/24 12:11:21;;;;;;;15.88;11.98;;;;;;;;;;5132774;27;20635;-65
2022/01/24 12:13:54;;;;;;;16.42;11.93;;;;;;;;;;5137823;27;20516;-63
2022/01/24 12:16:32;;;;;;;20.02;13.18;;;;;;;;;;5133103;27;20530;-64
2022/01/24 12:18:59;;;;;;;15.82;12.45;;;;;;;;;;5136322;27;20426;-64
2022/01/24 12:21:26;;;;;;;15.85;12.07;;;;;;;;;;5153704;27;20051;-66
2022/01/24 12:23:55;;;;;;;15.73;11.88;;;;;;;;;;5136840;27;20044;-64
2022/01/24 12:26:44;;;;;;;19.13;11.50;;;;;;;;;;5136380;27;20133;-63
2022/01/24 12:29:21;;;;;;;16.92;11.98;;;;;;;;;;5140416;27;20051;-63
2022/01/24 12:31:52;;;;;;;15.75;12.00;;;;;;;;;;5145156;27;20151;-63
2022/01/24 12:34:22;;;;;;;18.70;11.88;;;;;;;;;;5117620;27;20051;-64
2022/01/24 12:37:00;;;;;;;17.77;13.20;;;;;;;;;;5136276;27;20048;-64
2022/01/24 12:39:33;;;;;;;17.10;12.77;;;;;;;;;;5135946;27;20052;-64
2022/01/24 12:42:12;;;;;;;16.50;12.23;;;;;;;;;;5136400;27;20502;-63
2022/01/24 12:47:10;;;;;;;17.48;12.25;;;;;;;;;;5135796;27;20062;-64
2022/01/24 12:49:36;;;;;;;20.40;12.77;;;;;;;;;;5142633;27;20051;-63
2022/01/24 12:52:04;;;;;;;18.75;12.93;;;;;;;;;;5135979;27;20050;-64
2022/01/24 12:54:31;;;;;;;16.60;12.10;;;;;;;;;;5145577;27;20503;-64
2022/01/24 12:56:59;;;;;;;16.27;11.95;;;;;;;;;;5136164;27;20055;-63
2022/01/24 12:59:25;;;;;;;21.02;12.65;;;;;;;;;;5145808;27;20476;-63
2022/01/24 13:01:55;;;;;;;15.75;11.77;;;;;;;;;;5135894;27;20048;-64
2022/01/24 13:04:30;;;;;;;18.05;13.27;;;;;;;;;;5124702;27;20074;-64
2022/01/24 13:06:57;;;;;;;;;;;;;;;;;;5157331;27;20051;-65
2022/01/24 13:09:25;;;;;;;;;;;;;;;;;;5140930;27;45538;-65
2022/01/24 13:11:53;;;;;;;16.70;11.43;;;;;;;;;;5139115;27;47150;-65
2022/01/24 13:23:05;;;;;;;17.48;12.68;;;;;;;;;;5135130;27;20055;-64
2022/01/24 13:25:36;;;;;;;17.02;12.05;;;;;;;;;;5134964;27;20502;-63
2022/01/24 13:28:02;;;;;;;14.98;12.13;;;;;;;;;;5148937;27;20051;-63
2022/01/24 13:30:32;;;;;;;17.05;12.05;;;;;;;;;;5139609;27;20058;-63
2022/01/24 13:32:59;;;;;;;18.23;11.65;;;;;;;;;;5135048;27;20051;-63
2022/01/24 13:35:27;;;;;;;18.45;12.50;;;;;;;;;;5135358;27;20052;-63
2022/01/24 13:38:12;;;;;;;16.10;12.00;;;;;;;;;;5135321;27;20060;-63
2022/01/24 13:40:41;;;;;;;16.02;12.07;;;;;;;;;;5138012;27;20126;-65
2022/01/24 13:43:08;;;;;;;16.05;11.82;;;;;;;;;;5139289;27;20488;-65
2022/01/24 13:45:35;;;;;;;12.73;10.10;;;;;;;;;;5134785;27;20052;-64
2022/01/24 13:48:03;;;;;;;14.82;11.63;;;;;;;;;;5135319;27;20143;-64
2022/01/24 13:50:29;;;;;;;14.55;11.25;;;;;;;;;;5135118;27;20051;-65
2022/01/24 13:52:56;;;;;;;14.27;10.80;;;;;;;;;;5136577;27;20048;-64
2022/01/24 13:55:23;;;;;;;16.73;11.07;;;;;;;;;;5138584;27;20054;-64
2022/01/24 13:57:50;;;;;;;16.80;11.13;;;;;;;;;;5134998;27;20442;-64
2022/01/24 14:00:21;;;;;;;16.98;12.27;;;;;;;;;;5137004;27;20054;-64
2022/01/24 14:02:48;;;;;;;15.70;12.13;;;;;;;;;;5135520;27;20059;-64
2022/01/24 14:05:34;;;;;;;16.30;12.23;;;;;;;;;;5148749;27;20062;-64
2022/01/24 14:08:16;;;;;;;15.73;12.98;;;;;;;;;;5155549;27;20138;-64
2022/01/24 14:10:43;;;;;;;18.52;12.68;;;;;;;;;;5155532;27;20051;-64
2022/01/24 14:13:10;;;;;;;16.48;12.93;;;;;;;;;;5141901;27;20043;-64
2022/01/24 14:16:03;;;;;;;16.67;12.48;;;;;;;;;;5141981;27;20134;-64
2022/01/24 14:18:30;;;;;;;17.52;12.52;;;;;;;;;;5150254;27;20505;-64
2022/01/24 14:21:08;;;;;;;16.33;13.35;;;;;;;;;;5134811;27;20105;-64
2022/01/24 14:23:36;;;;;;;15.48;13.50;;;;;;;;;;5155324;27;20055;-64
2022/01/24 14:26:15;;;;;;;14.52;12.13;;;;;;;;;;5155713;27;20043;-65
2022/01/24 14:28:42;;;;;;;16.50;13.32;;;;;;;;;;5155640;27;20059;-65
2022/01/24 14:31:12;;;;;;;17.35;12.73;;;;;;;;;;5135144;27;20069;-64
2022/01/24 14:33:40;;;;;;;16.63;13.57;;;;;;;;;;5133318;27;20572;-63
2022/01/24 14:36:15;;;;;;;17.20;13.85;;;;;;;;;;5139126;27;20052;-65
2022/01/24 14:38:44;;;;;;;15.68;13.45;;;;;;;;;;5138652;27;20604;-64
2022/01/24 14:41:18;;;;;;;17.63;14.20;;;;;;;;;;5133794;27;20058;-62
2022/01/24 14:46:32;;;;;;;18.50;14.48;;;;;;;;;;5145883;27;20052;-64
2022/01/24 14:49:06;;;;;;;19.83;13.93;;;;;;;;;;5138215;27;20062;-64
2022/01/24 14:51:34;;;;;;;17.92;13.55;;;;;;;;;;5145132;27;20491;-63
2022/01/24 14:54:02;;;;;;;19.73;14.40;;;;;;;;;;5136841;27;20058;-63
2022/01/24 14:56:28;;;;;;;14.57;12.70;;;;;;;;;;5134154;27;20495;-63
2022/01/24 14:58:54;;;;;;;17.45;14.00;;;;;;;;;;5133866;27;20047;-63
2022/01/24 15:01:21;;;;;;;16.10;13.57;;;;;;;;;;5133860;27;20054;-63
2022/01/24 15:03:52;;;;;;;14.88;13.25;;;;;;;;;;5134304;27;20400;-63
2022/01/24 15:06:18;;;;;;;17.95;14.35;;;;;;;;;;5148691;27;20055;-64
2022/01/24 15:08:46;;;;;;;16.13;13.23;;;;;;;;;;5135863;27;20483;-63
2022/01/24 15:11:15;;;;;;;16.85;14.55;;;;;;;;;;5133377;27;20054;-63
2022/01/24 15:13:48;;;;;;;17.33;13.73;;;;;;;;;;5113206;28;20055;-62
2022/01/24 15:16:18;;;;;;;17.58;14.32;;;;;;;;;;5112853;28;20135;-63
2022/01/24 15:26:59;;;;;;;21.88;15.60;;;;;;;;;;5113097;27;20048;-64
2022/01/24 15:29:26;;;;;;;19.60;16.42;;;;;;;;;;5131143;27;20052;-63
2022/01/24 15:31:53;;;;;;;23.02;18.92;;;;;;;;;;5130696;27;20044;-63
2022/01/24 15:34:19;;;;;;;23.73;18.23;;;;;;;;;;5131931;27;20078;-62
2022/01/24 15:36:50;;;;;;;22.98;18.30;;;;;;;;;;5132012;27;20083;-63
2022/01/24 15:39:16;;;;;;;22.63;17.98;;;;;;;;;;5134816;27;20098;-63
2022/01/24 15:41:53;;;;;;;26.80;18.65;;;;;;;;;;5133042;27;20513;-63
2022/01/24 15:49:36;;;;;;;24.92;19.05;;;;;;;;;;5120166;27;20201;-63
2022/01/24 15:52:02;;;;;;;21.48;17.83;;;;;;;;;;5133422;27;20056;-63
2022/01/24 15:54:31;;;;;;;22.20;18.70;;;;;;;;;;5135276;27;20146;-63
2022/01/24 15:59:42;;;;;;;23.98;19.52;;;;;;;;;;5152011;27;20051;-62
2022/01/24 16:02:08;;;;;;;27.00;18.58;;;;;;;;;;5157641;27;20048;-62
2022/01/24 16:04:35;;;;;;;23.02;19.17;;;;;;;;;;5139729;27;20116;-63
2022/01/24 16:07:02;;;;;;;25.70;20.00;;;;;;;;;;5130275;27;20056;-64
2022/01/24 16:09:29;;;;;;;25.08;19.67;;;;;;;;;;5132948;27;20054;-64
2022/01/24 16:11:55;;;;;;;22.58;18.42;;;;;;;;;;5132796;27;20475;-63
2022/01/24 16:14:25;;;;;;;25.77;18.92;;;;;;;;;;5135516;27;20047;-64
2022/01/24 16:16:53;;;;;;;25.10;19.45;;;;;;;;;;5122392;27;20054;-63
2022/01/24 16:19:23;;;;;;;25.75;19.83;;;;;;;;;;5134764;27;20052;-63
2022/01/24 16:22:02;;;;;;;28.02;20.92;;;;;;;;;;5135565;27;20047;-63
2022/01/24 16:27:15;;;;;;;27.35;20.35;;;;;;;;;;5123959;27;20063;-63
2022/01/24 16:29:41;;;;;;;28.23;20.92;;;;;;;;;;5133031;27;20047;-63